Time;durP1;ratioP1;P1;durP2;ratioP2;P2;SDS_P1;SDS_P2;PMS_P1;PMS_P2;Temp;Humidity;BMP_temperature;BMP_pressure;BME280_temperature;BME280_humidity;BME280_pressure;Samples;Min_cycle;Max_cycle;Signal;HPM_P1;HPM_P2
2022/04/29 00:02:15;;;;;;;14.85;6.40;;;6.80;99.90;;;;;;5035042;28;20099;-71
2022/04/29 00:04:42;;;;;;;15.02;6.13;;;6.80;99.90;;;;;;5052601;28;20069;-71
2022/04/29 00:07:09;;;;;;;15.25;5.63;;;6.80;99.90;;;;;;5034794;28;20108;-71
2022/04/29 00:09:35;;;;;;;12.95;5.47;;;6.80;99.90;;;;;;5033431;28;20056;-71
2022/04/29 00:12:02;;;;;;;13.57;6.40;;;6.80;99.90;;;;;;5034576;28;20094;-72
2022/04/29 00:14:29;;;;;;;10.90;5.65;;;6.80;99.90;;;;;;5052214;28;20037;-71
2022/04/29 00:16:55;;;;;;;11.18;5.90;;;6.80;99.90;;;;;;5034557;28;20040;-71
2022/04/29 00:19:20;;;;;;;15.45;5.88;;;6.70;99.90;;;;;;5034405;28;20051;-71
2022/04/29 00:21:46;;;;;;;11.35;6.03;;;6.70;99.90;;;;;;5034228;28;20052;-71
2022/04/29 00:24:12;;;;;;;14.43;6.43;;;6.70;99.90;;;;;;5034267;28;20491;-71
2022/04/29 00:26:39;;;;;;;10.68;6.50;;;6.70;99.90;;;;;;5034248;28;20045;-71
2022/04/29 00:29:06;;;;;;;13.25;7.13;;;6.60;99.90;;;;;;5034095;28;20060;-71
2022/04/29 00:31:32;;;;;;;10.98;6.85;;;6.50;99.90;;;;;;5033027;28;20036;-71
2022/04/29 00:33:58;;;;;;;9.30;6.28;;;6.40;99.90;;;;;;5034344;28;20032;-71
2022/04/29 00:36:24;;;;;;;12.40;6.50;;;6.40;99.90;;;;;;5027092;28;20045;-71
2022/04/29 00:38:50;;;;;;;15.73;6.85;;;6.40;99.90;;;;;;5028258;28;20043;-71
2022/04/29 00:41:22;;;;;;;13.50;6.68;;;6.40;99.90;;;;;;5032837;28;20111;-71
2022/04/29 00:43:59;;;;;;;10.68;6.45;;;6.30;99.90;;;;;;5045604;28;20041;-71
2022/04/29 00:46:24;;;;;;;14.70;6.80;;;6.30;99.90;;;;;;5034353;28;20037;-71
2022/04/29 00:48:50;;;;;;;14.77;6.70;;;6.30;99.90;;;;;;5033840;28;20056;-71
2022/04/29 00:51:16;;;;;;;12.55;7.13;;;6.30;99.90;;;;;;5033950;28;20142;-71
2022/04/29 00:53:42;;;;;;;12.43;7.68;;;6.20;99.90;;;;;;5033841;28;20040;-71
2022/04/29 00:56:10;;;;;;;11.15;7.13;;;6.30;99.90;;;;;;5034074;28;20437;-71
2022/04/29 00:58:42;;;;;;;15.35;8.50;;;6.30;99.90;;;;;;5034119;28;20048;-71
2022/04/29 01:01:08;;;;;;;12.07;7.28;;;6.30;99.90;;;;;;5033580;28;20068;-71
2022/04/29 01:03:38;;;;;;;12.73;8.00;;;6.20;99.90;;;;;;5033754;28;20717;-71
2022/04/29 01:06:04;;;;;;;15.13;7.95;;;6.20;99.90;;;;;;5034035;28;20045;-71
2022/04/29 01:08:31;;;;;;;13.95;7.68;;;6.20;99.90;;;;;;5033924;28;20067;-71
2022/04/29 01:10:57;;;;;;;14.90;8.88;;;6.20;99.90;;;;;;5033591;28;20033;-71
2022/04/29 01:13:23;;;;;;;18.08;8.73;;;6.20;99.90;;;;;;5017289;28;20041;-71
2022/04/29 01:15:50;;;;;;;19.23;8.68;;;6.20;99.90;;;;;;5033062;28;20521;-71
2022/04/29 01:18:17;;;;;;;21.05;8.85;;;6.10;99.90;;;;;;5033680;28;20087;-71
2022/04/29 01:20:43;;;;;;;15.02;8.82;;;6.10;99.90;;;;;;5025396;28;20060;-71
2022/04/29 01:23:11;;;;;;;19.35;9.35;;;6.10;99.90;;;;;;5029824;28;20442;-71
2022/04/29 01:25:38;;;;;;;16.55;9.20;;;6.10;99.90;;;;;;5037912;28;20049;-71
2022/04/29 01:28:04;;;;;;;15.48;9.57;;;6.10;99.90;;;;;;5033389;28;20044;-71
2022/04/29 01:30:31;;;;;;;17.15;8.45;;;6.10;99.90;;;;;;5028889;28;20044;-71
2022/04/29 01:32:59;;;;;;;14.60;8.07;;;6.10;99.90;;;;;;5029339;28;20044;-71
2022/04/29 01:35:25;;;;;;;15.40;9.82;;;6.00;99.90;;;;;;5030335;28;20380;-71
2022/04/29 01:37:51;;;;;;;22.20;10.07;;;6.00;99.90;;;;;;5030627;28;20131;-71
2022/04/29 01:40:16;;;;;;;18.48;9.48;;;6.00;99.90;;;;;;5029804;28;20072;-71
2022/04/29 01:42:43;;;;;;;17.95;9.38;;;6.00;99.90;;;;;;5029469;28;20098;-71
2022/04/29 01:45:10;;;;;;;17.98;9.82;;;5.90;99.90;;;;;;5029073;28;20503;-72
2022/04/29 01:47:35;;;;;;;15.77;9.20;;;5.90;99.90;;;;;;5029663;28;20379;-72
2022/04/29 01:50:02;;;;;;;17.08;10.65;;;5.90;99.90;;;;;;5030752;28;20048;-72
2022/04/29 01:52:28;;;;;;;15.25;8.82;;;5.90;99.90;;;;;;5031518;28;20151;-72
2022/04/29 01:54:53;;;;;;;11.48;7.30;;;5.80;99.90;;;;;;5030994;28;20106;-72
2022/04/29 01:57:19;;;;;;;12.05;8.73;;;5.80;99.90;;;;;;5032728;28;20083;-72
2022/04/29 01:59:45;;;;;;;15.98;9.98;;;5.80;99.90;;;;;;5035875;28;20052;-70
2022/04/29 02:02:11;;;;;;;19.95;10.15;;;5.70;99.90;;;;;;5054019;28;20195;-71
2022/04/29 02:04:36;;;;;;;9.23;6.53;;;5.70;99.90;;;;;;5032800;28;20040;-72
2022/04/29 02:07:03;;;;;;;15.40;9.73;;;5.70;99.90;;;;;;5028291;28;20124;-72
2022/04/29 02:09:29;;;;;;;12.43;7.53;;;5.60;99.90;;;;;;5036048;28;20567;-72
2022/04/29 02:12:04;;;;;;;14.23;10.02;;;5.60;99.90;;;;;;5028672;28;20044;-71
2022/04/29 02:14:32;;;;;;;18.27;10.68;;;5.60;99.90;;;;;;5054827;28;20029;-70
2022/04/29 02:16:58;;;;;;;19.05;10.23;;;5.60;99.90;;;;;;5037096;28;20116;-71
2022/04/29 02:19:25;;;;;;;18.05;11.68;;;5.60;99.90;;;;;;5036728;28;20199;-71
2022/04/29 02:21:52;;;;;;;16.02;11.50;;;5.60;99.90;;;;;;5035477;28;20040;-72
2022/04/29 02:24:18;;;;;;;11.77;8.50;;;5.60;99.90;;;;;;5035618;28;20045;-72
2022/04/29 02:26:43;;;;;;;8.95;7.68;;;5.60;99.90;;;;;;5046098;28;20033;-72
2022/04/29 02:29:09;;;;;;;11.80;9.93;;;5.60;99.90;;;;;;5054057;28;20044;-71
2022/04/29 02:31:35;;;;;;;14.40;10.30;;;5.50;99.90;;;;;;5027738;28;20049;-72
2022/04/29 02:34:00;;;;;;;16.13;10.50;;;5.60;99.90;;;;;;5035258;28;20052;-72
2022/04/29 02:36:26;;;;;;;14.75;10.52;;;5.60;99.90;;;;;;5031320;28;20399;-72
2022/04/29 02:38:52;;;;;;;16.08;10.50;;;5.60;99.90;;;;;;5028206;28;20045;-72
2022/04/29 02:41:18;;;;;;;15.95;9.93;;;5.60;99.90;;;;;;5035790;28;20099;-72
2022/04/29 02:43:44;;;;;;;10.50;8.80;;;5.60;99.90;;;;;;5028182;28;20036;-70
2022/04/29 02:46:10;;;;;;;12.23;9.07;;;5.60;99.90;;;;;;5034827;28;20083;-71
2022/04/29 02:48:35;;;;;;;13.18;8.75;;;5.60;99.90;;;;;;5035990;28;20048;-71
2022/04/29 02:51:04;;;;;;;18.77;10.77;;;5.60;99.90;;;;;;5035902;28;20045;-71
2022/04/29 02:53:31;;;;;;;12.88;10.20;;;5.60;99.90;;;;;;5027996;28;20048;-71
2022/04/29 02:55:57;;;;;;;20.88;11.82;;;5.60;99.90;;;;;;5052111;28;20051;-71
2022/04/29 02:58:23;;;;;;;17.77;10.30;;;5.60;99.90;;;;;;5035634;28;20060;-70
2022/04/29 03:00:48;;;;;;;14.93;10.60;;;5.70;99.90;;;;;;5033973;28;20029;-70
2022/04/29 03:03:14;;;;;;;15.48;10.63;;;5.70;99.90;;;;;;5034368;28;20068;-71
2022/04/29 03:05:40;;;;;;;21.63;11.15;;;5.70;99.90;;;;;;5034101;28;20048;-71
2022/04/29 03:08:06;;;;;;;20.02;11.10;;;5.70;99.90;;;;;;5035497;28;20076;-71
2022/04/29 03:10:33;;;;;;;16.15;10.48;;;5.70;99.90;;;;;;5035255;28;20033;-71
2022/04/29 03:12:59;;;;;;;17.05;10.65;;;5.70;99.90;;;;;;5028948;28;20041;-71
2022/04/29 03:15:28;;;;;;;35.53;10.93;;;5.70;99.90;;;;;;5024047;28;20048;-71
2022/04/29 03:20:40;;;;;;;23.75;11.48;;;5.70;99.90;;;;;;5015242;28;20052;-72
2022/04/29 03:23:08;;;;;;;21.02;12.23;;;5.70;99.90;;;;;;5032213;28;20041;-72
2022/04/29 03:25:35;;;;;;;19.83;11.50;;;5.60;99.90;;;;;;5015601;28;20048;-72
2022/04/29 03:28:01;;;;;;;15.25;11.25;;;5.60;99.90;;;;;;4999177;28;20116;-72
2022/04/29 03:30:27;;;;;;;18.55;12.13;;;5.60;99.90;;;;;;5015060;28;20052;-72
2022/04/29 03:32:55;;;;;;;19.10;11.10;;;5.60;99.90;;;;;;5032152;28;20041;-72
2022/04/29 03:35:21;;;;;;;18.90;10.88;;;5.60;99.90;;;;;;5031974;28;20037;-72
2022/04/29 03:37:53;;;;;;;21.98;11.38;;;5.60;99.90;;;;;;5031930;28;20048;-72
2022/04/29 03:40:21;;;;;;;17.27;11.13;;;5.60;99.90;;;;;;5032842;28;20033;-73
2022/04/29 03:42:52;;;;;;;17.50;10.93;;;5.70;99.90;;;;;;5031832;28;20099;-72
2022/04/29 03:45:20;;;;;;;16.45;11.25;;;5.70;99.90;;;;;;5031756;28;20046;-72
2022/04/29 03:47:46;;;;;;;18.17;11.20;;;5.60;99.90;;;;;;5015330;28;20045;-73
2022/04/29 03:50:12;;;;;;;16.90;10.65;;;5.60;99.90;;;;;;4998570;28;20041;-72
2022/04/29 03:52:47;;;;;;;15.45;11.27;;;5.50;99.90;;;;;;5033053;28;20446;-72
2022/04/29 03:55:25;;;;;;;24.20;11.40;;;5.50;99.90;;;;;;5014993;28;20065;-72
2022/04/29 03:57:51;;;;;;;17.92;10.93;;;5.50;99.90;;;;;;5015028;28;20518;-72
2022/04/29 04:00:17;;;;;;;18.58;10.95;;;5.50;99.90;;;;;;5014853;28;20037;-73
2022/04/29 04:02:43;;;;;;;18.42;10.55;;;5.50;99.90;;;;;;5015125;28;20055;-72
2022/04/29 04:05:09;;;;;;;22.25;11.23;;;5.50;99.90;;;;;;5031438;28;20041;-72
2022/04/29 04:07:36;;;;;;;18.25;11.38;;;5.50;99.90;;;;;;5014998;28;20099;-73
2022/04/29 04:10:03;;;;;;;19.70;11.10;;;5.50;99.90;;;;;;5030694;28;20048;-72
2022/04/29 04:12:42;;;;;;;15.45;10.15;;;5.50;99.90;;;;;;5031372;28;20033;-72
2022/04/29 04:15:09;;;;;;;16.15;10.88;;;5.50;99.90;;;;;;5014932;28;20107;-72
2022/04/29 04:17:35;;;;;;;18.45;11.02;;;5.50;99.90;;;;;;5015073;28;20072;-72
2022/04/29 04:20:01;;;;;;;18.52;10.70;;;5.50;99.90;;;;;;5014379;28;20081;-71
2022/04/29 04:22:27;;;;;;;20.05;10.85;;;5.50;99.90;;;;;;5015238;28;20049;-72
2022/04/29 04:24:54;;;;;;;18.40;10.73;;;5.50;99.90;;;;;;5032193;28;20033;-72
2022/04/29 04:27:19;;;;;;;18.65;11.02;;;5.40;99.90;;;;;;4998288;28;20040;-72
2022/04/29 04:29:45;;;;;;;22.52;11.45;;;5.40;99.90;;;;;;5030614;28;20052;-72
2022/04/29 04:32:10;;;;;;;18.67;10.82;;;5.40;99.90;;;;;;5031020;28;20072;-72
2022/04/29 04:34:54;;;;;;;17.02;10.90;;;5.40;99.90;;;;;;5031138;28;20045;-72
2022/04/29 04:37:22;;;;;;;16.40;11.13;;;5.40;99.90;;;;;;5014410;28;20133;-72
2022/04/29 04:39:48;;;;;;;17.08;11.27;;;5.50;99.90;;;;;;5014218;28;20152;-72
2022/04/29 04:42:14;;;;;;;18.05;10.93;;;5.50;99.90;;;;;;5031138;28;20419;-72
2022/04/29 04:44:41;;;;;;;17.70;10.93;;;5.50;99.90;;;;;;5014523;28;20434;-72
2022/04/29 04:47:07;;;;;;;19.45;12.25;;;5.50;99.90;;;;;;5031172;28;20472;-72
2022/04/29 04:49:33;;;;;;;18.30;11.45;;;5.60;99.90;;;;;;5030445;28;20144;-72
2022/04/29 04:51:59;;;;;;;24.20;11.90;;;5.70;99.90;;;;;;5030911;28;20416;-71
2022/04/29 04:54:24;;;;;;;19.27;12.10;;;5.70;99.90;;;;;;5014136;28;20483;-72
2022/04/29 04:56:50;;;;;;;22.23;11.88;;;5.80;99.90;;;;;;5013778;28;20045;-73
2022/04/29 04:59:16;;;;;;;22.80;11.52;;;5.80;99.90;;;;;;5030809;28;20046;-72
2022/04/29 05:01:42;;;;;;;21.08;12.05;;;5.90;99.90;;;;;;5013802;28;20049;-72
2022/04/29 05:04:07;;;;;;;17.83;11.32;;;5.90;99.90;;;;;;5030785;28;20547;-72
2022/04/29 05:06:36;;;;;;;21.33;12.27;;;5.90;99.90;;;;;;5030640;28;20136;-72
2022/04/29 05:09:01;;;;;;;25.35;13.00;;;6.00;99.90;;;;;;5013868;28;20046;-72
2022/04/29 05:11:27;;;;;;;19.45;12.55;;;6.10;99.90;;;;;;5040591;28;20043;-72
2022/04/29 05:13:52;;;;;;;19.95;12.73;;;6.10;99.90;;;;;;5050570;28;20045;-72
2022/04/29 05:16:18;;;;;;;20.27;12.07;;;6.20;99.90;;;;;;5050679;28;20036;-73
2022/04/29 05:18:43;;;;;;;24.98;13.75;;;6.20;99.90;;;;;;5050546;28;20495;-72
2022/04/29 05:21:09;;;;;;;19.58;12.20;;;6.30;99.90;;;;;;5050205;28;20049;-72
2022/04/29 05:23:36;;;;;;;17.15;11.80;;;6.40;99.90;;;;;;5050462;28;20076;-72
2022/04/29 05:26:02;;;;;;;21.30;12.07;;;6.40;99.90;;;;;;5033691;28;20510;-72
2022/04/29 05:28:28;;;;;;;20.95;12.23;;;6.50;99.90;;;;;;5050195;28;20051;-72
2022/04/29 05:30:55;;;;;;;18.98;11.73;;;6.60;99.90;;;;;;5046354;28;20144;-72
2022/04/29 05:33:22;;;;;;;18.73;11.43;;;6.60;99.90;;;;;;5024214;28;20033;-72
2022/04/29 05:35:48;;;;;;;23.08;12.10;;;6.60;99.90;;;;;;5022299;28;20045;-71
2022/04/29 05:38:13;;;;;;;17.60;10.98;;;6.70;99.90;;;;;;5020327;28;20045;-72
2022/04/29 05:43:23;;;;;;;23.80;11.48;;;6.80;99.90;;;;;;5024924;28;20080;-72
2022/04/29 05:45:49;;;;;;;17.25;11.05;;;6.90;99.90;;;;;;5020134;28;20061;-71
2022/04/29 05:48:14;;;;;;;20.58;10.90;;;7.00;99.90;;;;;;5020893;28;20120;-72
2022/04/29 05:50:40;;;;;;;17.25;11.10;;;7.10;99.90;;;;;;5021354;28;20038;-72
2022/04/29 05:53:06;;;;;;;19.17;11.00;;;7.20;99.90;;;;;;5022238;28;20090;-72
2022/04/29 05:55:31;;;;;;;15.93;10.32;;;7.30;99.90;;;;;;5024060;28;20116;-72
2022/04/29 05:57:57;;;;;;;19.58;10.93;;;7.30;99.90;;;;;;5022497;28;20045;-72
2022/04/29 06:00:22;;;;;;;21.35;10.77;;;7.50;99.90;;;;;;5022242;28;20487;-72
2022/04/29 06:02:48;;;;;;;18.20;10.65;;;7.60;99.90;;;;;;5023974;28;20040;-72
2022/04/29 06:05:14;;;;;;;18.23;10.32;;;7.60;99.90;;;;;;5022078;28;20049;-72
2022/04/29 06:07:41;;;;;;;16.33;9.75;;;7.70;99.90;;;;;;5023583;28;20645;-73
2022/04/29 06:10:08;;;;;;;19.42;10.05;;;7.80;99.90;;;;;;5027019;28;20065;-73
2022/04/29 06:12:43;;;;;;;13.43;9.32;;;7.90;99.90;;;;;;5027831;28;20032;-72
2022/04/29 06:15:17;;;;;;;15.25;9.40;;;7.90;99.90;;;;;;5027569;28;20593;-73
2022/04/29 06:17:43;;;;;;;19.08;9.88;;;8.00;99.90;;;;;;5026692;28;20040;-73
2022/04/29 06:20:10;;;;;;;16.73;9.18;;;8.00;99.90;;;;;;5036183;28;20098;-72
2022/04/29 06:22:42;;;;;;;16.17;8.77;;;8.10;99.90;;;;;;5036733;28;20172;-72
2022/04/29 06:25:08;;;;;;;17.83;9.05;;;8.10;99.90;;;;;;5036633;28;20056;-73
2022/04/29 06:27:33;;;;;;;16.70;9.15;;;8.20;99.90;;;;;;5036649;28;20434;-72
2022/04/29 06:29:59;;;;;;;16.38;8.93;;;8.30;99.90;;;;;;5036135;28;20048;-72
2022/04/29 06:32:25;;;;;;;17.25;9.10;;;8.40;99.90;;;;;;5028085;28;20475;-72
2022/04/29 06:34:50;;;;;;;12.63;8.43;;;8.40;99.90;;;;;;5042808;28;20059;-72
2022/04/29 06:37:17;;;;;;;17.85;9.15;;;8.50;99.90;;;;;;5044248;28;20040;-72
2022/04/29 06:39:43;;;;;;;13.70;8.57;;;8.60;99.90;;;;;;5026957;28;20055;-73
2022/04/29 06:42:09;;;;;;;14.00;7.80;;;8.60;99.90;;;;;;5026895;28;20132;-73
2022/04/29 06:44:36;;;;;;;12.88;7.53;;;8.70;99.90;;;;;;5009165;28;20053;-72
2022/04/29 06:47:02;;;;;;;16.92;7.97;;;8.70;99.90;;;;;;5025697;28;20076;-72
2022/04/29 06:49:28;;;;;;;12.93;7.30;;;8.80;99.90;;;;;;5026390;28;20072;-72
2022/04/29 06:51:53;;;;;;;10.35;6.80;;;8.80;99.90;;;;;;5025250;28;20215;-72
2022/04/29 06:54:19;;;;;;;11.23;6.72;;;8.80;99.90;;;;;;5025699;28;20037;-72
2022/04/29 06:56:44;;;;;;;14.55;6.55;;;8.90;99.90;;;;;;5026927;28;20090;-72
2022/04/29 06:59:10;;;;;;;12.07;5.97;;;8.90;99.90;;;;;;5024475;28;20041;-72
2022/04/29 07:01:36;;;;;;;11.32;5.75;;;9.00;99.90;;;;;;5023096;28;20498;-72
2022/04/29 07:04:01;;;;;;;11.00;6.05;;;8.90;99.90;;;;;;5026589;28;20041;-72
2022/04/29 07:06:27;;;;;;;15.80;5.38;;;9.00;99.90;;;;;;5023875;28;20640;-72
2022/04/29 07:08:53;;;;;;;12.73;5.40;;;9.00;99.90;;;;;;5024636;28;20045;-72
2022/04/29 07:11:19;;;;;;;10.98;5.60;;;9.00;99.90;;;;;;5029673;28;20032;-72
2022/04/29 07:13:45;;;;;;;11.75;5.47;;;9.00;99.90;;;;;;5035923;28;20052;-72
2022/04/29 07:16:10;;;;;;;13.80;5.28;;;9.20;99.90;;;;;;5035924;28;20112;-72
2022/04/29 07:18:36;;;;;;;11.60;4.90;;;9.20;99.90;;;;;;5034935;28;20116;-73
2022/04/29 07:21:03;;;;;;;11.50;4.85;;;9.30;99.90;;;;;;5035384;28;20033;-73
2022/04/29 07:23:29;;;;;;;10.80;5.18;;;9.30;99.90;;;;;;5035872;28;20124;-72
2022/04/29 07:25:55;;;;;;;9.80;5.03;;;9.30;99.90;;;;;;5035259;28;20124;-72
2022/04/29 07:28:21;;;;;;;10.93;5.03;;;9.40;99.90;;;;;;5019340;28;20513;-72
2022/04/29 07:30:47;;;;;;;10.95;4.97;;;9.40;99.90;;;;;;5034947;28;20037;-72
2022/04/29 07:33:13;;;;;;;11.55;5.10;;;9.50;99.90;;;;;;5029567;28;20041;-73
2022/04/29 07:43:52;;;;;;;9.77;4.60;;;9.90;99.90;;;;;;5035117;28;20488;-70
2022/04/29 07:46:21;;;;;;;7.63;4.70;;;10.00;99.90;;;;;;5032478;28;20037;-70
2022/04/29 07:48:47;;;;;;;8.73;4.38;;;10.10;99.90;;;;;;5033629;28;20487;-72
2022/04/29 07:51:12;;;;;;;8.00;4.78;;;10.20;99.90;;;;;;5033648;28;20041;-73
2022/04/29 07:53:38;;;;;;;8.07;4.63;;;10.20;99.90;;;;;;5033890;28;20098;-73
2022/04/29 07:56:07;;;;;;;9.80;4.80;;;10.30;99.90;;;;;;5033895;28;20127;-73
2022/04/29 07:58:34;;;;;;;7.97;4.57;;;10.40;99.90;;;;;;5033589;28;20043;-72
2022/04/29 08:01:01;;;;;;;12.40;5.05;;;10.40;99.90;;;;;;5033425;28;20044;-73
2022/04/29 08:03:27;;;;;;;9.50;4.93;;;10.40;99.90;;;;;;5033608;28;20037;-73
2022/04/29 08:05:55;;;;;;;7.63;5.00;;;10.40;99.90;;;;;;5033457;28;20036;-73
2022/04/29 08:08:21;;;;;;;11.25;5.07;;;10.50;99.90;;;;;;5033608;28;20039;-73
2022/04/29 08:10:47;;;;;;;10.80;5.35;;;10.50;99.90;;;;;;5032922;28;20033;-73
2022/04/29 08:13:12;;;;;;;13.63;5.45;;;10.50;99.90;;;;;;5016859;28;20036;-73
2022/04/29 08:15:38;;;;;;;10.85;4.50;;;10.50;99.90;;;;;;5033447;28;20506;-73
2022/04/29 08:18:05;;;;;;;10.57;5.18;;;10.50;99.90;;;;;;5033267;28;20044;-73
2022/04/29 08:20:31;;;;;;;13.88;4.20;;;10.60;99.90;;;;;;5032584;28;20048;-73
2022/04/29 08:22:57;;;;;;;10.70;3.55;;;10.80;99.90;;;;;;5033172;28;20045;-73
2022/04/29 08:25:23;;;;;;;7.85;3.83;;;11.00;99.90;;;;;;5033280;28;20045;-73
2022/04/29 08:27:50;;;;;;;7.32;3.08;;;11.20;99.90;;;;;;5033148;28;20044;-73
2022/04/29 08:30:16;;;;;;;10.15;3.28;;;11.30;99.90;;;;;;5029734;28;20395;-73
2022/04/29 08:32:44;;;;;;;6.03;2.90;;;11.50;99.90;;;;;;5032880;28;20040;-73
2022/04/29 08:35:11;;;;;;;6.20;3.20;;;11.60;99.90;;;;;;5033043;28;20037;-73
2022/04/29 08:37:37;;;;;;;6.90;3.00;;;11.80;99.90;;;;;;5032808;28;20060;-73
2022/04/29 08:40:05;;;;;;;8.43;3.20;;;12.00;99.90;;;;;;5032712;28;20049;-73
2022/04/29 08:42:37;;;;;;;6.50;2.80;;;12.10;99.90;;;;;;5032923;28;20040;-73
2022/04/29 08:45:07;;;;;;;;;;;12.30;99.90;;;;;;5033157;28;20037;-73
2022/04/29 08:47:37;;;;;;;8.30;3.00;;;12.40;99.90;;;;;;5033074;28;19916;-73
2022/04/29 08:50:14;;;;;;;10.95;3.00;;;12.60;99.90;;;;;;5017348;28;20045;-70
2022/04/29 08:52:40;;;;;;;8.93;2.85;;;12.70;99.90;;;;;;5014307;28;20049;-70
2022/04/29 09:00:41;;;;;;;8.48;3.00;;;12.80;99.90;;;;;;5013740;28;20053;-71
2022/04/29 09:03:16;;;;;;;7.95;3.03;;;12.90;99.90;;;;;;5015446;28;20050;-70
2022/04/29 09:05:43;;;;;;;9.05;2.80;;;12.90;99.90;;;;;;5022377;28;20041;-71
2022/04/29 09:08:15;;;;;;;6.78;3.05;;;13.00;99.90;;;;;;5023846;28;20451;-71
2022/04/29 09:11:11;;;;;;;7.55;3.08;;;13.00;99.90;;;;;;5024512;28;20040;-71
2022/04/29 09:13:38;;;;;;;7.95;2.60;;;13.20;99.90;;;;;;5008446;28;20053;-70
2022/04/29 09:16:12;;;;;;;7.82;2.72;;;13.30;99.90;;;;;;5014392;28;20128;-70
2022/04/29 09:18:48;;;;;;;5.30;2.58;;;13.50;98.10;;;;;;5016842;28;20057;-70
2022/04/29 09:21:18;;;;;;;9.73;3.20;;;13.50;99.70;;;;;;5027120;28;20041;-70
2022/04/29 09:23:43;;;;;;;7.90;2.33;;;13.60;98.60;;;;;;5024787;28;20415;-70
2022/04/29 09:26:26;;;;;;;7.28;2.80;;;13.70;96.20;;;;;;5021935;28;20038;-70
2022/04/29 09:29:21;;;;;;;6.43;2.53;;;13.60;94.50;;;;;;5022052;28;20046;-71
2022/04/29 09:32:01;;;;;;;8.93;3.00;;;13.60;95.70;;;;;;5031226;28;20033;-73
2022/04/29 09:34:50;;;;;;;4.78;2.28;;;13.60;99.40;;;;;;5012893;28;20038;-73
2022/04/29 09:37:22;;;;;;;8.52;2.35;;;13.90;96.50;;;;;;5011823;28;20033;-72
2022/04/29 09:39:52;;;;;;;6.30;2.25;;;14.20;96.50;;;;;;5011477;28;20037;-73
2022/04/29 09:42:18;;;;;;;7.18;2.22;;;14.50;97.00;;;;;;5020144;28;20093;-73
2022/04/29 09:44:45;;;;;;;7.82;2.53;;;14.80;93.50;;;;;;5035384;28;20037;-73
2022/04/29 09:47:19;;;;;;;6.68;2.70;;;14.90;92.70;;;;;;5035371;28;20044;-73
2022/04/29 09:49:59;;;;;;;5.85;2.70;;;14.90;91.80;;;;;;5035304;28;20064;-73
2022/04/29 09:52:26;;;;;;;7.57;2.42;;;14.90;86.20;;;;;;5020660;28;20051;-73
2022/04/29 09:54:53;;;;;;;5.88;2.10;;;14.80;83.90;;;;;;5036795;28;20087;-72
2022/04/29 09:57:27;;;;;;;4.32;1.95;;;14.60;84.00;;;;;;5033954;28;20487;-73
2022/04/29 09:59:54;;;;;;;7.88;2.38;;;14.50;90.40;;;;;;5036739;28;20045;-72
2022/04/29 10:02:26;;;;;;;5.75;1.90;;;14.40;89.90;;;;;;5037129;28;20049;-73
2022/04/29 10:04:53;;;;;;;5.60;2.13;;;14.30;85.40;;;;;;5037002;28;20044;-71
2022/04/29 10:07:20;;;;;;;6.10;2.40;;;14.30;84.50;;;;;;5046170;28;20146;-72
2022/04/29 10:09:52;;;;;;;6.82;2.15;;;14.20;89.40;;;;;;5027295;28;20098;-72
2022/04/29 10:12:23;;;;;;;6.38;2.17;;;14.00;86.50;;;;;;5035113;28;20067;-73
2022/04/29 10:14:53;;;;;;;5.80;2.40;;;13.90;92.90;;;;;;5033408;28;20044;-73
2022/04/29 10:23:01;;;;;;;8.20;2.70;;;13.60;94.40;;;;;;5033978;28;20055;-73
2022/04/29 10:25:28;;;;;;;5.45;2.33;;;13.50;92.30;;;;;;5033097;28;20049;-73
2022/04/29 10:27:54;;;;;;;7.30;2.10;;;13.50;93.20;;;;;;5035312;28;20044;-73
2022/04/29 10:30:37;;;;;;;7.88;2.47;;;13.30;93.70;;;;;;5034591;28;20037;-73
2022/04/29 10:33:11;;;;;;;6.30;1.98;;;13.30;93.50;;;;;;5027316;28;20045;-72
2022/04/29 10:35:43;;;;;;;7.63;2.10;;;13.20;92.50;;;;;;5032209;28;20072;-72
2022/04/29 10:38:15;;;;;;;5.40;2.22;;;13.20;93.40;;;;;;5035431;28;20407;-72
2022/04/29 10:40:42;;;;;;;4.80;1.90;;;13.20;93.70;;;;;;5034670;28;20083;-72
2022/04/29 10:43:10;;;;;;;5.18;1.85;;;13.20;92.10;;;;;;5035381;28;20044;-72
2022/04/29 10:46:05;;;;;;;6.80;2.20;;;13.20;95.10;;;;;;5018727;28;20114;-72
2022/04/29 10:48:32;;;;;;;9.25;2.53;;;13.30;95.60;;;;;;5032851;28;20037;-73
2022/04/29 10:51:08;;;;;;;7.88;2.10;;;13.40;94.30;;;;;;5035057;28;20063;-73
2022/04/29 10:53:41;;;;;;;5.50;2.17;;;13.40;94.20;;;;;;5035306;28;20036;-73
2022/04/29 10:56:32;;;;;;;4.90;1.90;;;13.40;93.00;;;;;;5036178;28;20429;-73
2022/04/29 10:59:03;;;;;;;6.22;2.10;;;13.60;93.10;;;;;;5036346;28;20234;-72
2022/04/29 11:01:34;;;;;;;8.10;2.55;;;13.50;93.50;;;;;;5036092;28;20040;-72
2022/04/29 11:04:06;;;;;;;6.90;2.00;;;13.50;94.50;;;;;;5036228;28;20467;-73
2022/04/29 11:06:46;;;;;;;5.53;2.10;;;13.40;95.10;;;;;;5036260;28;20556;-73
2022/04/29 11:09:47;;;;;;;5.40;2.03;;;13.30;97.30;;;;;;5035979;28;20611;-73
2022/04/29 11:12:42;;;;;;;6.57;2.20;;;13.30;98.70;;;;;;5035993;28;20041;-73
2022/04/29 11:15:16;;;;;;;6.47;2.00;;;13.40;94.00;;;;;;5035650;28;20518;-72
2022/04/29 11:17:43;;;;;;;5.75;2.03;;;13.40;96.10;;;;;;5036066;28;20045;-72
2022/04/29 11:20:15;;;;;;;5.53;2.05;;;13.30;94.40;;;;;;5035348;28;20045;-72
2022/04/29 11:25:25;;;;;;;3.60;2.00;;;13.20;96.90;;;;;;5035473;28;20441;-72
2022/04/29 11:27:51;;;;;;;5.50;2.10;;;13.20;98.50;;;;;;5035678;28;20132;-73
2022/04/29 11:30:18;;;;;;;6.28;2.58;;;13.30;96.80;;;;;;5052868;28;20037;-73
2022/04/29 11:32:44;;;;;;;8.85;2.20;;;13.30;97.90;;;;;;5035661;28;20511;-73
2022/04/29 11:35:09;;;;;;;4.63;2.45;;;13.30;98.40;;;;;;5035474;28;20128;-73
2022/04/29 11:37:35;;;;;;;9.15;2.50;;;13.40;98.00;;;;;;5052223;28;20128;-72
2022/04/29 11:40:04;;;;;;;6.78;2.10;;;13.40;97.30;;;;;;5034957;28;20124;-73
2022/04/29 11:42:30;;;;;;;4.82;2.20;;;13.30;96.60;;;;;;5035283;28;20037;-73
2022/04/29 11:45:12;;;;;;;5.88;2.33;;;13.20;94.10;;;;;;5035211;28;20094;-73
2022/04/29 11:47:37;;;;;;;7.20;2.20;;;13.20;97.90;;;;;;5035508;28;20075;-72
2022/04/29 11:50:07;;;;;;;4.43;2.28;;;13.30;97.20;;;;;;5034759;28;20044;-72
2022/04/29 11:52:36;;;;;;;11.55;2.92;;;13.40;96.50;;;;;;5034925;28;20128;-72
2022/04/29 11:55:04;;;;;;;5.50;2.50;;;13.40;97.50;;;;;;5018513;28;20037;-72
2022/04/29 11:57:33;;;;;;;5.72;2.50;;;13.50;96.40;;;;;;5034883;28;20037;-72
2022/04/29 12:00:00;;;;;;;5.68;2.60;;;13.60;95.60;;;;;;5034679;28;20049;-72
2022/04/29 12:02:27;;;;;;;7.35;2.67;;;13.60;93.20;;;;;;5035088;28;20049;-72
2022/04/29 12:05:03;;;;;;;4.80;2.70;;;13.60;95.80;;;;;;5017890;28;20037;-72
2022/04/29 12:07:40;;;;;;;9.98;2.88;;;13.40;95.60;;;;;;5034599;28;20048;-72
2022/04/29 12:10:27;;;;;;;5.63;2.63;;;13.50;96.00;;;;;;5034504;28;20048;-72
2022/04/29 12:12:57;;;;;;;6.00;3.35;;;13.50;97.20;;;;;;5034854;28;20084;-72
2022/04/29 12:15:29;;;;;;;6.32;3.03;;;13.60;95.80;;;;;;5034675;28;20036;-72
2022/04/29 12:18:14;;;;;;;8.20;3.42;;;13.70;95.20;;;;;;5034615;28;20048;-73
2022/04/29 12:20:41;;;;;;;6.88;3.42;;;13.70;95.40;;;;;;5034286;28;20418;-72
2022/04/29 12:23:16;;;;;;;5.95;2.90;;;13.80;96.00;;;;;;5034839;28;20049;-73
2022/04/29 12:25:45;;;;;;;5.50;3.50;;;13.80;94.30;;;;;;5034463;28;20045;-73
2022/04/29 12:28:28;;;;;;;6.28;3.30;;;13.70;94.50;;;;;;5034625;28;20049;-72
2022/04/29 12:37:04;;;;;;;5.38;3.30;;;13.60;94.10;;;;;;5033678;28;20085;-72
2022/04/29 12:39:40;;;;;;;11.48;3.50;;;13.70;94.10;;;;;;5027943;28;20045;-73
2022/04/29 12:42:09;;;;;;;5.90;3.75;;;13.80;94.40;;;;;;5014536;28;20045;-72
2022/04/29 12:45:05;;;;;;;7.00;3.90;;;13.90;95.70;;;;;;5014591;28;20525;-72
2022/04/29 12:47:41;;;;;;;9.18;3.97;;;13.90;95.20;;;;;;5014380;28;20048;-73
2022/04/29 12:50:36;;;;;;;8.55;3.70;;;13.90;92.00;;;;;;5013898;28;20120;-73
2022/04/29 12:53:06;;;;;;;8.77;3.85;;;13.80;93.80;;;;;;5014538;28;20442;-73
2022/04/29 12:55:37;;;;;;;7.13;3.92;;;13.80;94.60;;;;;;5024493;28;20071;-73
2022/04/29 12:58:04;;;;;;;7.97;3.90;;;13.90;92.80;;;;;;5027851;28;20048;-72
2022/04/29 13:00:30;;;;;;;7.45;3.90;;;13.90;92.30;;;;;;5032509;28;20060;-72
2022/04/29 13:03:08;;;;;;;11.75;4.18;;;14.00;86.80;;;;;;5033031;28;20072;-72
2022/04/29 13:05:34;;;;;;;7.80;3.90;;;14.00;91.30;;;;;;5016247;28;20123;-72
2022/04/29 13:08:01;;;;;;;6.10;3.33;;;14.10;92.00;;;;;;5033108;28;20037;-73
2022/04/29 13:10:28;;;;;;;6.82;3.40;;;14.10;89.30;;;;;;5032272;28;20506;-72
2022/04/29 13:12:54;;;;;;;8.30;3.60;;;14.00;86.10;;;;;;5032559;28;20080;-72
2022/04/29 13:15:20;;;;;;;6.95;3.67;;;14.00;89.30;;;;;;5032605;28;20053;-72
2022/04/29 13:17:46;;;;;;;4.63;3.50;;;13.90;85.70;;;;;;5034469;28;20033;-72
2022/04/29 13:20:12;;;;;;;6.43;3.40;;;14.00;91.50;;;;;;5036089;28;20063;-72
2022/04/29 13:22:39;;;;;;;7.43;3.78;;;14.10;90.70;;;;;;5036655;28;20451;-72
2022/04/29 13:25:08;;;;;;;7.53;3.67;;;14.20;84.80;;;;;;5036569;28;20056;-72